sensor_id;sensor_type;location;lat;lon;timestamp;temperature;humidity
24618;DHT22;12762;51.730;5.356;2023-11-21T00:02:29;9.00;92.10
24618;DHT22;12762;51.730;5.356;2023-11-21T00:04:56;9.00;92.10
24618;DHT22;12762;51.730;5.356;2023-11-21T00:07:23;8.90;92.10
24618;DHT22;12762;51.730;5.356;2023-11-21T00:09:57;8.90;92.10
24618;DHT22;12762;51.730;5.356;2023-11-21T00:12:23;8.90;92.20
24618;DHT22;12762;51.730;5.356;2023-11-21T00:14:51;8.90;92.20
24618;DHT22;12762;51.730;5.356;2023-11-21T00:17:21;8.80;92.50
24618;DHT22;12762;51.730;5.356;2023-11-21T00:19:47;8.80;92.20
24618;DHT22;12762;51.730;5.356;2023-11-21T00:22:14;8.80;92.20
24618;DHT22;12762;51.730;5.356;2023-11-21T00:24:42;8.70;92.20
24618;DHT22;12762;51.730;5.356;2023-11-21T00:27:09;8.70;92.20
24618;DHT22;12762;51.730;5.356;2023-11-21T00:29:36;8.70;92.20
24618;DHT22;12762;51.730;5.356;2023-11-21T00:32:02;8.60;92.20
24618;DHT22;12762;51.730;5.356;2023-11-21T00:34:29;8.60;92.20
24618;DHT22;12762;51.730;5.356;2023-11-21T00:36:59;8.60;92.30
24618;DHT22;12762;51.730;5.356;2023-11-21T00:39:26;8.50;92.30
24618;DHT22;12762;51.730;5.356;2023-11-21T00:41:53;8.50;92.30
24618;DHT22;12762;51.730;5.356;2023-11-21T00:44:22;8.50;92.30
24618;DHT22;12762;51.730;5.356;2023-11-21T00:46:49;8.40;92.30
24618;DHT22;12762;51.730;5.356;2023-11-21T00:49:20;8.40;92.30
24618;DHT22;12762;51.730;5.356;2023-11-21T00:51:47;8.40;92.40
24618;DHT22;12762;51.730;5.356;2023-11-21T00:54:14;8.30;92.30
24618;DHT22;12762;51.730;5.356;2023-11-21T00:56:43;8.30;92.40
24618;DHT22;12762;51.730;5.356;2023-11-21T00:59:10;8.30;92.40
24618;DHT22;12762;51.730;5.356;2023-11-21T01:01:37;8.20;92.40
24618;DHT22;12762;51.730;5.356;2023-11-21T01:04:07;8.20;92.40
24618;DHT22;12762;51.730;5.356;2023-11-21T01:06:34;8.20;92.40
24618;DHT22;12762;51.730;5.356;2023-11-21T01:09:04;8.10;92.40
24618;DHT22;12762;51.730;5.356;2023-11-21T01:11:35;8.10;92.40
24618;DHT22;12762;51.730;5.356;2023-11-21T01:14:04;8.10;92.50
24618;DHT22;12762;51.730;5.356;2023-11-21T01:16:31;8.00;92.40
24618;DHT22;12762;51.730;5.356;2023-11-21T01:18:59;8.00;92.50
24618;DHT22;12762;51.730;5.356;2023-11-21T01:21:26;8.00;92.50
24618;DHT22;12762;51.730;5.356;2023-11-21T01:23:54;7.90;92.50
24618;DHT22;12762;51.730;5.356;2023-11-21T01:26:22;7.90;92.50
24618;DHT22;12762;51.730;5.356;2023-11-21T01:28:48;7.90;92.50
24618;DHT22;12762;51.730;5.356;2023-11-21T01:31:15;7.90;92.50
24618;DHT22;12762;51.730;5.356;2023-11-21T01:33:42;7.80;92.50
24618;DHT22;12762;51.730;5.356;2023-11-21T01:36:09;7.80;92.50
24618;DHT22;12762;51.730;5.356;2023-11-21T01:38:37;7.80;92.50
24618;DHT22;12762;51.730;5.356;2023-11-21T01:41:06;7.70;92.50
24618;DHT22;12762;51.730;5.356;2023-11-21T01:43:33;7.70;92.50
24618;DHT22;12762;51.730;5.356;2023-11-21T01:46:03;7.70;92.50
24618;DHT22;12762;51.730;5.356;2023-11-21T01:48:30;7.70;92.50
24618;DHT22;12762;51.730;5.356;2023-11-21T01:50:58;7.70;92.50
24618;DHT22;12762;51.730;5.356;2023-11-21T01:53:25;7.60;92.50
24618;DHT22;12762;51.730;5.356;2023-11-21T01:55:56;7.60;92.60
24618;DHT22;12762;51.730;5.356;2023-11-21T01:58:24;7.60;92.60
24618;DHT22;12762;51.730;5.356;2023-11-21T02:00:52;7.60;92.70
24618;DHT22;12762;51.730;5.356;2023-11-21T02:03:23;7.60;92.70
24618;DHT22;12762;51.730;5.356;2023-11-21T02:05:50;7.60;92.70
24618;DHT22;12762;51.730;5.356;2023-11-21T02:08:18;7.60;92.70
24618;DHT22;12762;51.730;5.356;2023-11-21T02:10:46;7.60;92.70
24618;DHT22;12762;51.730;5.356;2023-11-21T02:13:14;7.60;92.70
24618;DHT22;12762;51.730;5.356;2023-11-21T02:15:41;7.60;92.70
24618;DHT22;12762;51.730;5.356;2023-11-21T02:18:08;7.60;92.70
24618;DHT22;12762;51.730;5.356;2023-11-21T02:20:36;7.50;92.60
24618;DHT22;12762;51.730;5.356;2023-11-21T02:23:05;7.50;92.70
24618;DHT22;12762;51.730;5.356;2023-11-21T02:25:33;7.50;92.70
24618;DHT22;12762;51.730;5.356;2023-11-21T02:28:02;7.50;92.70
24618;DHT22;12762;51.730;5.356;2023-11-21T02:30:29;7.50;92.70
24618;DHT22;12762;51.730;5.356;2023-11-21T02:33:02;7.50;92.80
24618;DHT22;12762;51.730;5.356;2023-11-21T02:35:29;7.50;92.80
24618;DHT22;12762;51.730;5.356;2023-11-21T02:37:58;7.50;92.80
24618;DHT22;12762;51.730;5.356;2023-11-21T02:40:25;7.50;92.80
24618;DHT22;12762;51.730;5.356;2023-11-21T02:42:53;7.50;92.80
24618;DHT22;12762;51.730;5.356;2023-11-21T02:45:21;7.50;92.80
24618;DHT22;12762;51.730;5.356;2023-11-21T02:47:48;7.60;92.90
24618;DHT22;12762;51.730;5.356;2023-11-21T02:50:16;7.60;92.90
24618;DHT22;12762;51.730;5.356;2023-11-21T02:52:51;7.60;92.90
24618;DHT22;12762;51.730;5.356;2023-11-21T02:55:18;7.60;92.90
24618;DHT22;12762;51.730;5.356;2023-11-21T02:57:45;7.60;92.90
24618;DHT22;12762;51.730;5.356;2023-11-21T03:00:12;7.70;93.00
24618;DHT22;12762;51.730;5.356;2023-11-21T03:02:41;7.70;93.00
24618;DHT22;12762;51.730;5.356;2023-11-21T03:05:09;7.70;93.00
24618;DHT22;12762;51.730;5.356;2023-11-21T03:07:37;7.70;93.00
24618;DHT22;12762;51.730;5.356;2023-11-21T03:10:06;7.70;93.10
24618;DHT22;12762;51.730;5.356;2023-11-21T03:12:35;7.70;93.10
24618;DHT22;12762;51.730;5.356;2023-11-21T03:15:02;7.80;93.10
24618;DHT22;12762;51.730;5.356;2023-11-21T03:17:29;7.80;93.10
24618;DHT22;12762;51.730;5.356;2023-11-21T03:19:56;7.80;93.50
24618;DHT22;12762;51.730;5.356;2023-11-21T03:22:23;7.80;93.10
24618;DHT22;12762;51.730;5.356;2023-11-21T03:24:50;7.80;93.10
24618;DHT22;12762;51.730;5.356;2023-11-21T03:27:17;7.90;93.20
24618;DHT22;12762;51.730;5.356;2023-11-21T03:29:44;7.90;93.20
24618;DHT22;12762;51.730;5.356;2023-11-21T03:32:13;7.90;93.20
24618;DHT22;12762;51.730;5.356;2023-11-21T03:34:54;7.90;93.20
24618;DHT22;12762;51.730;5.356;2023-11-21T03:37:22;7.90;93.10
24618;DHT22;12762;51.730;5.356;2023-11-21T03:39:49;7.90;93.10
24618;DHT22;12762;51.730;5.356;2023-11-21T03:42:16;8.00;93.20
24618;DHT22;12762;51.730;5.356;2023-11-21T03:44:43;8.00;93.20
24618;DHT22;12762;51.730;5.356;2023-11-21T03:47:10;8.00;93.20
24618;DHT22;12762;51.730;5.356;2023-11-21T03:49:40;8.00;93.20
24618;DHT22;12762;51.730;5.356;2023-11-21T03:52:06;8.00;93.20
24618;DHT22;12762;51.730;5.356;2023-11-21T03:54:37;8.00;93.20
24618;DHT22;12762;51.730;5.356;2023-11-21T03:57:04;8.00;93.30
24618;DHT22;12762;51.730;5.356;2023-11-21T03:59:31;8.00;93.30
24618;DHT22;12762;51.730;5.356;2023-11-21T04:01:58;8.00;93.30
24618;DHT22;12762;51.730;5.356;2023-11-21T04:04:24;8.10;93.30
24618;DHT22;12762;51.730;5.356;2023-11-21T04:06:51;8.00;93.30
24618;DHT22;12762;51.730;5.356;2023-11-21T04:09:18;8.10;93.30
24618;DHT22;12762;51.730;5.356;2023-11-21T04:11:46;8.10;93.30
24618;DHT22;12762;51.730;5.356;2023-11-21T04:14:19;8.10;93.30
24618;DHT22;12762;51.730;5.356;2023-11-21T04:16:46;8.10;93.30
24618;DHT22;12762;51.730;5.356;2023-11-21T04:19:13;8.00;93.30
24618;DHT22;12762;51.730;5.356;2023-11-21T04:21:46;8.10;93.30
24618;DHT22;12762;51.730;5.356;2023-11-21T04:24:12;8.00;93.30
24618;DHT22;12762;51.730;5.356;2023-11-21T04:26:44;8.00;93.30
24618;DHT22;12762;51.730;5.356;2023-11-21T04:29:10;8.00;93.30
24618;DHT22;12762;51.730;5.356;2023-11-21T04:31:37;8.00;93.40
24618;DHT22;12762;51.730;5.356;2023-11-21T04:34:04;8.00;93.40
24618;DHT22;12762;51.730;5.356;2023-11-21T04:36:31;8.00;93.40
24618;DHT22;12762;51.730;5.356;2023-11-21T04:38:58;8.00;93.40
24618;DHT22;12762;51.730;5.356;2023-11-21T04:41:25;8.00;93.40
24618;DHT22;12762;51.730;5.356;2023-11-21T04:43:52;8.00;93.50
24618;DHT22;12762;51.730;5.356;2023-11-21T04:46:19;8.10;93.50
24618;DHT22;12762;51.730;5.356;2023-11-21T04:48:46;8.10;93.50
24618;DHT22;12762;51.730;5.356;2023-11-21T04:51:13;8.10;93.50
24618;DHT22;12762;51.730;5.356;2023-11-21T04:53:40;8.10;93.50
24618;DHT22;12762;51.730;5.356;2023-11-21T04:56:07;8.10;93.50
24618;DHT22;12762;51.730;5.356;2023-11-21T04:58:34;8.10;93.50
24618;DHT22;12762;51.730;5.356;2023-11-21T05:01:02;8.10;93.60
24618;DHT22;12762;51.730;5.356;2023-11-21T05:03:33;8.20;93.60
24618;DHT22;12762;51.730;5.356;2023-11-21T05:06:00;8.20;93.60
24618;DHT22;12762;51.730;5.356;2023-11-21T05:08:27;8.20;93.60
24618;DHT22;12762;51.730;5.356;2023-11-21T05:10:53;8.30;93.60
24618;DHT22;12762;51.730;5.356;2023-11-21T05:13:23;8.30;93.70
24618;DHT22;12762;51.730;5.356;2023-11-21T05:15:57;8.30;93.70
24618;DHT22;12762;51.730;5.356;2023-11-21T05:18:24;8.30;93.70
24618;DHT22;12762;51.730;5.356;2023-11-21T05:20:53;8.40;93.70
24618;DHT22;12762;51.730;5.356;2023-11-21T05:23:26;8.40;93.70
24618;DHT22;12762;51.730;5.356;2023-11-21T05:25:53;8.40;93.70
24618;DHT22;12762;51.730;5.356;2023-11-21T05:28:20;8.40;93.70
24618;DHT22;12762;51.730;5.356;2023-11-21T05:30:46;8.50;93.70
24618;DHT22;12762;51.730;5.356;2023-11-21T05:33:13;8.50;93.70
24618;DHT22;12762;51.730;5.356;2023-11-21T05:35:40;8.50;93.80
24618;DHT22;12762;51.730;5.356;2023-11-21T05:38:07;8.50;93.80
24618;DHT22;12762;51.730;5.356;2023-11-21T05:40:37;8.50;93.80
24618;DHT22;12762;51.730;5.356;2023-11-21T05:43:04;8.50;93.80
24618;DHT22;12762;51.730;5.356;2023-11-21T05:45:31;8.60;93.80
24618;DHT22;12762;51.730;5.356;2023-11-21T05:47:58;8.60;93.80
24618;DHT22;12762;51.730;5.356;2023-11-21T05:50:25;8.60;93.80
24618;DHT22;12762;51.730;5.356;2023-11-21T05:52:52;8.70;93.90
24618;DHT22;12762;51.730;5.356;2023-11-21T05:55:22;8.70;93.90
24618;DHT22;12762;51.730;5.356;2023-11-21T05:57:52;8.70;93.90
24618;DHT22;12762;51.730;5.356;2023-11-21T06:00:20;8.80;94.00
24618;DHT22;12762;51.730;5.356;2023-11-21T06:02:51;8.80;94.00
24618;DHT22;12762;51.730;5.356;2023-11-21T06:05:30;8.80;94.00
24618;DHT22;12762;51.730;5.356;2023-11-21T06:07:58;8.80;94.00
24618;DHT22;12762;51.730;5.356;2023-11-21T06:10:26;8.90;94.00
24618;DHT22;12762;51.730;5.356;2023-11-21T06:12:55;8.90;94.00
24618;DHT22;12762;51.730;5.356;2023-11-21T06:15:22;8.90;94.00
24618;DHT22;12762;51.730;5.356;2023-11-21T06:17:50;8.90;94.10
24618;DHT22;12762;51.730;5.356;2023-11-21T06:20:21;9.00;94.10
24618;DHT22;12762;51.730;5.356;2023-11-21T06:22:50;9.00;94.10
24618;DHT22;12762;51.730;5.356;2023-11-21T06:25:17;9.00;94.10
24618;DHT22;12762;51.730;5.356;2023-11-21T06:27:46;9.00;94.10
24618;DHT22;12762;51.730;5.356;2023-11-21T06:30:14;9.00;94.10
24618;DHT22;12762;51.730;5.356;2023-11-21T06:32:51;9.10;94.20
24618;DHT22;12762;51.730;5.356;2023-11-21T06:35:19;9.10;94.20
24618;DHT22;12762;51.730;5.356;2023-11-21T06:37:46;9.10;94.20
24618;DHT22;12762;51.730;5.356;2023-11-21T06:40:18;9.10;94.20
24618;DHT22;12762;51.730;5.356;2023-11-21T06:42:46;9.10;94.20
24618;DHT22;12762;51.730;5.356;2023-11-21T06:45:14;9.20;94.30
24618;DHT22;12762;51.730;5.356;2023-11-21T06:47:41;9.20;94.30
24618;DHT22;12762;51.730;5.356;2023-11-21T06:50:09;9.20;94.30
24618;DHT22;12762;51.730;5.356;2023-11-21T06:52:42;9.20;94.30
24618;DHT22;12762;51.730;5.356;2023-11-21T06:55:10;9.20;94.30
24618;DHT22;12762;51.730;5.356;2023-11-21T06:57:37;9.20;94.30
24618;DHT22;12762;51.730;5.356;2023-11-21T07:00:05;9.30;94.40
24618;DHT22;12762;51.730;5.356;2023-11-21T07:02:33;9.30;94.40
24618;DHT22;12762;51.730;5.356;2023-11-21T07:05:00;9.30;94.40
24618;DHT22;12762;51.730;5.356;2023-11-21T07:07:30;9.30;94.40
24618;DHT22;12762;51.730;5.356;2023-11-21T07:09:58;9.30;94.40
24618;DHT22;12762;51.730;5.356;2023-11-21T07:12:30;9.30;94.50
24618;DHT22;12762;51.730;5.356;2023-11-21T07:14:58;9.40;94.50
24618;DHT22;12762;51.730;5.356;2023-11-21T07:17:25;9.40;94.50
24618;DHT22;12762;51.730;5.356;2023-11-21T07:19:54;9.40;94.50
24618;DHT22;12762;51.730;5.356;2023-11-21T07:22:22;9.40;94.50
24618;DHT22;12762;51.730;5.356;2023-11-21T07:24:49;9.50;94.60
24618;DHT22;12762;51.730;5.356;2023-11-21T07:27:23;9.50;94.60
24618;DHT22;12762;51.730;5.356;2023-11-21T07:29:50;9.50;94.60
24618;DHT22;12762;51.730;5.356;2023-11-21T07:32:16;9.50;94.60
24618;DHT22;12762;51.730;5.356;2023-11-21T07:34:46;9.60;94.70
24618;DHT22;12762;51.730;5.356;2023-11-21T07:37:13;9.60;94.70
24618;DHT22;12762;51.730;5.356;2023-11-21T07:39:40;9.60;94.70
24618;DHT22;12762;51.730;5.356;2023-11-21T07:42:09;9.60;94.70
24618;DHT22;12762;51.730;5.356;2023-11-21T07:44:37;9.60;95.10
24618;DHT22;12762;51.730;5.356;2023-11-21T07:47:04;9.70;94.80
24618;DHT22;12762;51.730;5.356;2023-11-21T07:49:31;9.70;94.80
24618;DHT22;12762;51.730;5.356;2023-11-21T07:51:58;9.70;94.80
24618;DHT22;12762;51.730;5.356;2023-11-21T07:54:25;9.70;94.90
24618;DHT22;12762;51.730;5.356;2023-11-21T07:56:51;9.80;94.90
24618;DHT22;12762;51.730;5.356;2023-11-21T07:59:18;9.80;94.90
24618;DHT22;12762;51.730;5.356;2023-11-21T08:01:45;9.80;94.90
24618;DHT22;12762;51.730;5.356;2023-11-21T08:04:12;9.80;94.90
24618;DHT22;12762;51.730;5.356;2023-11-21T08:06:39;9.90;95.00
24618;DHT22;12762;51.730;5.356;2023-11-21T08:09:08;9.90;95.00
24618;DHT22;12762;51.730;5.356;2023-11-21T08:11:36;9.90;95.00
24618;DHT22;12762;51.730;5.356;2023-11-21T08:14:05;9.90;95.10
24618;DHT22;12762;51.730;5.356;2023-11-21T08:16:32;10.00;94.60
24618;DHT22;12762;51.730;5.356;2023-11-21T08:18:59;10.00;94.60
24618;DHT22;12762;51.730;5.356;2023-11-21T08:21:26;10.00;94.60
24618;DHT22;12762;51.730;5.356;2023-11-21T08:23:57;10.10;94.70
24618;DHT22;12762;51.730;5.356;2023-11-21T08:26:24;10.10;94.70
24618;DHT22;12762;51.730;5.356;2023-11-21T08:28:51;10.10;94.70
24618;DHT22;12762;51.730;5.356;2023-11-21T08:31:26;10.20;94.80
24618;DHT22;12762;51.730;5.356;2023-11-21T08:33:53;10.20;94.80
24618;DHT22;12762;51.730;5.356;2023-11-21T08:36:25;10.20;94.80
24618;DHT22;12762;51.730;5.356;2023-11-21T08:38:52;10.30;94.90
24618;DHT22;12762;51.730;5.356;2023-11-21T08:41:19;10.30;94.90
24618;DHT22;12762;51.730;5.356;2023-11-21T08:43:49;10.40;94.90
24618;DHT22;12762;51.730;5.356;2023-11-21T08:46:16;10.50;95.00
24618;DHT22;12762;51.730;5.356;2023-11-21T08:48:44;10.50;95.00
24618;DHT22;12762;51.730;5.356;2023-11-21T08:51:11;10.60;95.00
24618;DHT22;12762;51.730;5.356;2023-11-21T08:53:38;10.60;95.00
24618;DHT22;12762;51.730;5.356;2023-11-21T08:56:06;10.60;94.90
24618;DHT22;12762;51.730;5.356;2023-11-21T08:58:33;10.70;95.00
24618;DHT22;12762;51.730;5.356;2023-11-21T09:01:00;10.70;95.00
24618;DHT22;12762;51.730;5.356;2023-11-21T09:03:30;10.70;95.10
24618;DHT22;12762;51.730;5.356;2023-11-21T09:05:58;10.80;95.10
24618;DHT22;12762;51.730;5.356;2023-11-21T09:08:26;10.80;95.10
24618;DHT22;12762;51.730;5.356;2023-11-21T09:10:54;10.80;95.10
24618;DHT22;12762;51.730;5.356;2023-11-21T09:13:23;10.80;95.10
24618;DHT22;12762;51.730;5.356;2023-11-21T09:15:52;10.90;95.20
24618;DHT22;12762;51.730;5.356;2023-11-21T09:18:19;10.90;95.10
24618;DHT22;12762;51.730;5.356;2023-11-21T09:20:46;10.90;95.20
24618;DHT22;12762;51.730;5.356;2023-11-21T09:23:13;11.00;95.20
24618;DHT22;12762;51.730;5.356;2023-11-21T09:25:39;11.00;95.30
24618;DHT22;12762;51.730;5.356;2023-11-21T09:28:06;11.00;95.20
24618;DHT22;12762;51.730;5.356;2023-11-21T09:30:39;11.10;95.30
24618;DHT22;12762;51.730;5.356;2023-11-21T09:33:09;11.10;95.30
24618;DHT22;12762;51.730;5.356;2023-11-21T09:35:44;11.10;95.30
24618;DHT22;12762;51.730;5.356;2023-11-21T09:38:11;11.20;95.40
24618;DHT22;12762;51.730;5.356;2023-11-21T09:40:38;11.20;95.30
24618;DHT22;12762;51.730;5.356;2023-11-21T09:43:12;11.20;95.40
24618;DHT22;12762;51.730;5.356;2023-11-21T09:45:46;11.20;95.40
24618;DHT22;12762;51.730;5.356;2023-11-21T09:48:14;11.30;95.50
24618;DHT22;12762;51.730;5.356;2023-11-21T09:50:43;11.40;95.50
24618;DHT22;12762;51.730;5.356;2023-11-21T09:53:19;11.50;95.60
24618;DHT22;12762;51.730;5.356;2023-11-21T09:55:54;11.50;95.50
24618;DHT22;12762;51.730;5.356;2023-11-21T09:58:21;11.60;95.50
24618;DHT22;12762;51.730;5.356;2023-11-21T10:00:53;11.60;95.50
24618;DHT22;12762;51.730;5.356;2023-11-21T10:03:20;11.60;95.50
24618;DHT22;12762;51.730;5.356;2023-11-21T10:05:50;11.70;95.50
24618;DHT22;12762;51.730;5.356;2023-11-21T10:08:17;11.70;95.50
24618;DHT22;12762;51.730;5.356;2023-11-21T10:10:50;11.70;95.40
24618;DHT22;12762;51.730;5.356;2023-11-21T10:13:18;11.70;95.40
24618;DHT22;12762;51.730;5.356;2023-11-21T10:15:50;11.80;95.50
24618;DHT22;12762;51.730;5.356;2023-11-21T10:18:19;11.80;95.60
24618;DHT22;12762;51.730;5.356;2023-11-21T10:20:45;11.90;95.60
24618;DHT22;12762;51.730;5.356;2023-11-21T10:23:21;11.90;95.60
24618;DHT22;12762;51.730;5.356;2023-11-21T10:25:53;11.90;95.50
24618;DHT22;12762;51.730;5.356;2023-11-21T10:28:24;11.90;95.50
24618;DHT22;12762;51.730;5.356;2023-11-21T10:30:51;11.90;95.50
24618;DHT22;12762;51.730;5.356;2023-11-21T10:33:27;12.00;95.60
24618;DHT22;12762;51.730;5.356;2023-11-21T10:35:57;12.00;95.50
24618;DHT22;12762;51.730;5.356;2023-11-21T10:38:24;12.00;95.60
24618;DHT22;12762;51.730;5.356;2023-11-21T10:40:52;12.00;95.40
24618;DHT22;12762;51.730;5.356;2023-11-21T10:43:25;12.00;95.40
24618;DHT22;12762;51.730;5.356;2023-11-21T10:45:52;12.00;95.40
24618;DHT22;12762;51.730;5.356;2023-11-21T10:48:20;12.00;95.50
24618;DHT22;12762;51.730;5.356;2023-11-21T10:50:48;12.00;95.50
24618;DHT22;12762;51.730;5.356;2023-11-21T10:53:20;12.10;95.70
24618;DHT22;12762;51.730;5.356;2023-11-21T10:55:47;12.10;95.60
24618;DHT22;12762;51.730;5.356;2023-11-21T10:58:16;12.10;95.60
24618;DHT22;12762;51.730;5.356;2023-11-21T11:00:43;12.10;95.60
24618;DHT22;12762;51.730;5.356;2023-11-21T11:03:12;12.10;95.50
24618;DHT22;12762;51.730;5.356;2023-11-21T11:05:46;12.10;95.60
24618;DHT22;12762;51.730;5.356;2023-11-21T11:08:21;12.10;95.50
24618;DHT22;12762;51.730;5.356;2023-11-21T11:10:53;12.10;95.50
24618;DHT22;12762;51.730;5.356;2023-11-21T11:13:20;12.10;95.50
24618;DHT22;12762;51.730;5.356;2023-11-21T11:15:48;12.10;95.50
24618;DHT22;12762;51.730;5.356;2023-11-21T11:18:16;12.10;95.50
24618;DHT22;12762;51.730;5.356;2023-11-21T11:20:44;12.10;95.40
24618;DHT22;12762;51.730;5.356;2023-11-21T11:28:59;12.10;95.40
24618;DHT22;12762;51.730;5.356;2023-11-21T11:31:55;12.10;95.40
24618;DHT22;12762;51.730;5.356;2023-11-21T11:34:34;12.10;95.40
24618;DHT22;12762;51.730;5.356;2023-11-21T11:37:08;12.10;95.40
24618;DHT22;12762;51.730;5.356;2023-11-21T11:39:42;12.00;95.40
24618;DHT22;12762;51.730;5.356;2023-11-21T11:42:14;12.00;95.30
24618;DHT22;12762;51.730;5.356;2023-11-21T11:47:28;12.00;95.40
24618;DHT22;12762;51.730;5.356;2023-11-21T11:50:02;12.00;95.30
24618;DHT22;12762;51.730;5.356;2023-11-21T11:52:50;12.00;95.40
24618;DHT22;12762;51.730;5.356;2023-11-21T11:55:21;12.00;95.40
24618;DHT22;12762;51.730;5.356;2023-11-21T11:57:51;12.00;95.40
24618;DHT22;12762;51.730;5.356;2023-11-21T12:00:33;12.00;95.40
24618;DHT22;12762;51.730;5.356;2023-11-21T12:03:05;12.00;95.30
24618;DHT22;12762;51.730;5.356;2023-11-21T12:05:34;12.00;95.40
24618;DHT22;12762;51.730;5.356;2023-11-21T12:08:12;12.00;95.30
24618;DHT22;12762;51.730;5.356;2023-11-21T12:10:39;12.00;95.30
24618;DHT22;12762;51.730;5.356;2023-11-21T12:13:08;12.00;95.30
24618;DHT22;12762;51.730;5.356;2023-11-21T12:15:37;12.00;95.30
24618;DHT22;12762;51.730;5.356;2023-11-21T12:18:06;11.90;95.30
24618;DHT22;12762;51.730;5.356;2023-11-21T12:20:36;11.90;95.30
24618;DHT22;12762;51.730;5.356;2023-11-21T12:23:06;11.90;95.30
24618;DHT22;12762;51.730;5.356;2023-11-21T12:25:33;11.90;95.30
24618;DHT22;12762;51.730;5.356;2023-11-21T12:28:03;11.90;95.30
24618;DHT22;12762;51.730;5.356;2023-11-21T12:30:31;11.90;95.30
24618;DHT22;12762;51.730;5.356;2023-11-21T12:32:59;11.90;95.30
24618;DHT22;12762;51.730;5.356;2023-11-21T12:35:28;11.90;95.30
24618;DHT22;12762;51.730;5.356;2023-11-21T12:37:57;11.90;95.30
24618;DHT22;12762;51.730;5.356;2023-11-21T12:40:26;11.80;95.30
24618;DHT22;12762;51.730;5.356;2023-11-21T12:42:59;11.80;95.30
24618;DHT22;12762;51.730;5.356;2023-11-21T12:45:29;11.80;95.30
24618;DHT22;12762;51.730;5.356;2023-11-21T12:48:00;11.80;95.30
24618;DHT22;12762;51.730;5.356;2023-11-21T12:50:31;11.80;95.30
24618;DHT22;12762;51.730;5.356;2023-11-21T12:53:08;11.80;95.30
24618;DHT22;12762;51.730;5.356;2023-11-21T12:55:36;11.80;95.30
24618;DHT22;12762;51.730;5.356;2023-11-21T12:58:08;11.90;95.40
24618;DHT22;12762;51.730;5.356;2023-11-21T13:00:40;11.90;95.40
24618;DHT22;12762;51.730;5.356;2023-11-21T13:03:10;12.00;95.40
24618;DHT22;12762;51.730;5.356;2023-11-21T13:05:40;12.00;95.70
24618;DHT22;12762;51.730;5.356;2023-11-21T13:08:14;12.00;95.30
24618;DHT22;12762;51.730;5.356;2023-11-21T13:10:45;12.00;95.20
24618;DHT22;12762;51.730;5.356;2023-11-21T13:13:14;12.00;95.20
24618;DHT22;12762;51.730;5.356;2023-11-21T13:15:54;12.00;95.20
24618;DHT22;12762;51.730;5.356;2023-11-21T13:18:25;12.00;95.20
24618;DHT22;12762;51.730;5.356;2023-11-21T13:21:00;12.00;95.30
24618;DHT22;12762;51.730;5.356;2023-11-21T13:23:28;12.00;95.30
24618;DHT22;12762;51.730;5.356;2023-11-21T13:25:59;12.10;95.30
24618;DHT22;12762;51.730;5.356;2023-11-21T13:28:36;12.10;95.30
24618;DHT22;12762;51.730;5.356;2023-11-21T13:31:05;12.10;95.20
24618;DHT22;12762;51.730;5.356;2023-11-21T13:33:38;12.10;95.10
24618;DHT22;12762;51.730;5.356;2023-11-21T13:36:13;12.10;95.10
24618;DHT22;12762;51.730;5.356;2023-11-21T13:38:41;12.10;95.10
24618;DHT22;12762;51.730;5.356;2023-11-21T13:41:10;12.10;95.10
24618;DHT22;12762;51.730;5.356;2023-11-21T13:43:38;12.20;95.10
24618;DHT22;12762;51.730;5.356;2023-11-21T13:46:05;12.20;95.00
24618;DHT22;12762;51.730;5.356;2023-11-21T13:48:43;12.10;94.90
24618;DHT22;12762;51.730;5.356;2023-11-21T13:51:17;12.10;94.90
24618;DHT22;12762;51.730;5.356;2023-11-21T13:53:45;12.10;94.90
24618;DHT22;12762;51.730;5.356;2023-11-21T13:56:15;12.10;94.90
24618;DHT22;12762;51.730;5.356;2023-11-21T13:58:46;12.10;94.80
24618;DHT22;12762;51.730;5.356;2023-11-21T14:01:18;12.10;94.80
24618;DHT22;12762;51.730;5.356;2023-11-21T14:04:05;12.10;94.70
24618;DHT22;12762;51.730;5.356;2023-11-21T14:06:47;12.10;94.70
24618;DHT22;12762;51.730;5.356;2023-11-21T14:09:21;12.00;94.60
24618;DHT22;12762;51.730;5.356;2023-11-21T14:12:02;12.00;94.60
24618;DHT22;12762;51.730;5.356;2023-11-21T14:14:33;11.90;94.60
24618;DHT22;12762;51.730;5.356;2023-11-21T14:17:00;11.90;94.60
24618;DHT22;12762;51.730;5.356;2023-11-21T14:19:33;11.90;94.70
24618;DHT22;12762;51.730;5.356;2023-11-21T14:22:01;11.90;94.70
24618;DHT22;12762;51.730;5.356;2023-11-21T14:24:28;11.80;94.60
24618;DHT22;12762;51.730;5.356;2023-11-21T14:27:02;11.80;94.60
24618;DHT22;12762;51.730;5.356;2023-11-21T14:29:30;11.80;94.60
24618;DHT22;12762;51.730;5.356;2023-11-21T14:31:57;11.70;94.60
24618;DHT22;12762;51.730;5.356;2023-11-21T14:34:25;11.70;94.60
24618;DHT22;12762;51.730;5.356;2023-11-21T14:36:59;11.70;94.60
24618;DHT22;12762;51.730;5.356;2023-11-21T14:42:26;11.60;94.60
24618;DHT22;12762;51.730;5.356;2023-11-21T14:44:55;11.60;94.60
24618;DHT22;12762;51.730;5.356;2023-11-21T14:47:29;11.60;94.60
24618;DHT22;12762;51.730;5.356;2023-11-21T14:49:56;11.60;94.60
24618;DHT22;12762;51.730;5.356;2023-11-21T14:52:26;11.60;94.60
24618;DHT22;12762;51.730;5.356;2023-11-21T14:55:03;11.60;94.60
24618;DHT22;12762;51.730;5.356;2023-11-21T14:57:46;11.60;94.60
24618;DHT22;12762;51.730;5.356;2023-11-21T15:00:17;11.60;94.60
24618;DHT22;12762;51.730;5.356;2023-11-21T15:03:00;11.60;94.60
24618;DHT22;12762;51.730;5.356;2023-11-21T15:05:28;11.60;94.60
24618;DHT22;12762;51.730;5.356;2023-11-21T15:07:55;11.60;94.60
24618;DHT22;12762;51.730;5.356;2023-11-21T15:10:24;11.60;94.60
24618;DHT22;12762;51.730;5.356;2023-11-21T15:13:04;11.50;94.60
24618;DHT22;12762;51.730;5.356;2023-11-21T15:15:34;11.50;94.60
24618;DHT22;12762;51.730;5.356;2023-11-21T15:18:03;11.60;94.70
24618;DHT22;12762;51.730;5.356;2023-11-21T15:20:30;11.50;94.60
24618;DHT22;12762;51.730;5.356;2023-11-21T15:22:57;11.50;94.70
24618;DHT22;12762;51.730;5.356;2023-11-21T15:25:24;11.50;94.60
24618;DHT22;12762;51.730;5.356;2023-11-21T15:27:54;11.50;94.60
24618;DHT22;12762;51.730;5.356;2023-11-21T15:30:21;11.50;94.70
24618;DHT22;12762;51.730;5.356;2023-11-21T15:32:51;11.40;94.60
24618;DHT22;12762;51.730;5.356;2023-11-21T15:35:20;11.40;94.60
24618;DHT22;12762;51.730;5.356;2023-11-21T15:37:47;11.40;94.50
24618;DHT22;12762;51.730;5.356;2023-11-21T15:40:14;11.40;94.60
24618;DHT22;12762;51.730;5.356;2023-11-21T15:42:43;11.30;94.60
24618;DHT22;12762;51.730;5.356;2023-11-21T15:45:11;11.30;94.60
24618;DHT22;12762;51.730;5.356;2023-11-21T15:47:38;11.30;94.60
24618;DHT22;12762;51.730;5.356;2023-11-21T15:50:06;11.20;94.60
24618;DHT22;12762;51.730;5.356;2023-11-21T15:52:36;11.20;94.60
24618;DHT22;12762;51.730;5.356;2023-11-21T15:55:21;11.20;94.70
24618;DHT22;12762;51.730;5.356;2023-11-21T15:57:48;11.10;94.70
24618;DHT22;12762;51.730;5.356;2023-11-21T16:00:20;11.10;94.70
24618;DHT22;12762;51.730;5.356;2023-11-21T16:02:49;11.10;94.70
24618;DHT22;12762;51.730;5.356;2023-11-21T16:05:16;11.00;94.70